This is the latest recevied weather packets stored in our database for station/object IQ5KG. If no packets are shown the sender has not sent any weather packets the latest 10 day(s).
| Time | Temp. | Humidity | Pressure | Rain* | Wind** | Luminosity | Snow |
|---|---|---|---|---|---|---|---|
| 1777735058 | 21.67° C | 40% | 1021.5 hPa | 0 mm | - | - | - |
| 1777734158 | 22.22° C | 39% | 1021.5 hPa | 0 mm | - | - | - |
| 1777733258 | 22.22° C | 40% | 1021.8 hPa | 0 mm | - | - | - |
| 1777732358 | 22.22° C | 41% | 1021.7 hPa | 0 mm | - | - | - |
| 1777731459 | 22.78° C | 40% | 1021.8 hPa | 0 mm | - | - | - |
| 1777730558 | 22.78° C | 39% | 1022.1 hPa | 0 mm | - | - | - |
| 1777729658 | 24.44° C | 38% | 1022.2 hPa | 0 mm | - | - | - |
| 1777728758 | 23.89° C | 36% | 1022.5 hPa | 0 mm | - | - | - |
| 1777727859 | 24.44° C | 36% | 1022.7 hPa | 0 mm | - | - | - |
| 1777726958 | 24.44° C | 35% | 1022.7 hPa | 0 mm | - | - | - |
| 1777726059 | 26.11° C | 31% | 1022.8 hPa | 0 mm | - | - | - |
| 1777725158 | 23.33° C | 33% | 1023.3 hPa | 0 mm | - | - | - |
| 1777724258 | 23.33° C | 33% | 1023.4 hPa | 0 mm | - | - | - |
| 1777723357 | 23.33° C | 35% | 1023.6 hPa | 0 mm | - | - | - |
| 1777722459 | 23.89° C | 33% | 1023.8 hPa | 0 mm | - | - | - |
| 1777721557 | 22.78° C | 33% | 1024.2 hPa | 0 mm | - | - | - |
| 1777720658 | 23.89° C | 34% | 1024.3 hPa | 0 mm | - | - | - |
| 1777719757 | 22.22° C | 35% | 1024.6 hPa | 0 mm | - | - | - |
| 1777718857 | 22.22° C | 34% | 1024.8 hPa | 0 mm | - | - | - |
| 1777717958 | 22.78° C | 34% | 1024.9 hPa | 0 mm | - | - | - |
| 1777717056 | 22.78° C | 34% | 1025.1 hPa | 0 mm | - | - | - |
| 1777716156 | 21.67° C | 35% | 1025.3 hPa | 0 mm | - | - | - |
| 1777715256 | 21.11° C | 35% | 1025.5 hPa | 0 mm | - | - | - |
| 1777714356 | 21.11° C | 36% | 1025.7 hPa | 0 mm | - | - | - |
| 1777713456 | 20.56° C | 36% | 1025.6 hPa | 0 mm | - | - | - |
* Rain latest hour (hover to see other rain measurements)
** Current wind speed in m/s (hover to see current wind gust speed)